sensor_id;sensor_type;location;lat;lon;timestamp;pressure;altitude;pressure_sealevel;temperature;humidity
75513;BME280;64090;49.770;18.760;2022-10-14T00:01:58;97915.27;;;9.08;85.94
75513;BME280;64090;49.770;18.760;2022-10-14T00:04:25;97913.73;;;9.03;85.80
75513;BME280;64090;49.770;18.760;2022-10-14T00:06:52;97911.09;;;8.98;85.76
75513;BME280;64090;49.770;18.760;2022-10-14T00:09:19;97910.02;;;8.94;85.59
75513;BME280;64090;49.770;18.760;2022-10-14T00:11:45;97909.11;;;8.92;85.79
75513;BME280;64090;49.770;18.760;2022-10-14T00:14:15;97909.21;;;8.90;86.03
75513;BME280;64090;49.770;18.760;2022-10-14T00:16:45;97906.80;;;8.88;86.21
75513;BME280;64090;49.770;18.760;2022-10-14T00:19:12;97907.23;;;8.87;86.21
75513;BME280;64090;49.770;18.760;2022-10-14T00:21:42;97903.80;;;8.87;86.03
75513;BME280;64090;49.770;18.760;2022-10-14T00:24:13;97906.30;;;8.87;85.78
75513;BME280;64090;49.770;18.760;2022-10-14T00:26:41;97903.20;;;8.87;85.79
75513;BME280;64090;49.770;18.760;2022-10-14T00:29:14;97899.02;;;8.85;85.96
75513;BME280;64090;49.770;18.760;2022-10-14T00:31:41;97900.67;;;8.85;86.29
75513;BME280;64090;49.770;18.760;2022-10-14T00:34:08;97899.45;;;8.83;85.98
75513;BME280;64090;49.770;18.760;2022-10-14T00:36:38;97901.02;;;8.85;85.72
75513;BME280;64090;49.770;18.760;2022-10-14T00:39:06;97902.23;;;8.87;85.44
75513;BME280;64090;49.770;18.760;2022-10-14T00:41:34;97899.14;;;8.90;85.79
75513;BME280;64090;49.770;18.760;2022-10-14T00:46:42;97897.90;;;8.97;86.60
75513;BME280;64090;49.770;18.760;2022-10-14T00:49:22;97897.92;;;9.01;86.60
75513;BME280;64090;49.770;18.760;2022-10-14T00:54:28;97894.11;;;9.08;86.32
75513;BME280;64090;49.770;18.760;2022-10-14T00:56:55;97893.29;;;9.12;86.49
75513;BME280;64090;49.770;18.760;2022-10-14T00:59:22;97890.95;;;9.15;86.79
75513;BME280;64090;49.770;18.760;2022-10-14T01:01:49;97891.21;;;9.18;86.89
75513;BME280;64090;49.770;18.760;2022-10-14T01:04:15;97888.91;;;9.20;86.79
75513;BME280;64090;49.770;18.760;2022-10-14T01:15:46;97883.11;;;9.25;86.49
75513;BME280;64090;49.770;18.760;2022-10-14T01:23:25;97875.92;;;9.38;87.45
75513;BME280;64090;49.770;18.760;2022-10-14T01:31:46;97871.54;;;9.52;86.50
75513;BME280;64090;49.770;18.760;2022-10-14T01:34:21;97867.54;;;9.59;86.60
75513;BME280;64090;49.770;18.760;2022-10-14T01:36:55;97865.08;;;9.66;86.84
75513;BME280;64090;49.770;18.760;2022-10-14T01:39:26;97861.21;;;9.71;86.86
75513;BME280;64090;49.770;18.760;2022-10-14T01:42:00;97857.08;;;9.75;86.79
75513;BME280;64090;49.770;18.760;2022-10-14T01:44:29;97855.38;;;9.79;86.49
75513;BME280;64090;49.770;18.760;2022-10-14T01:46:57;97853.07;;;9.82;86.36
75513;BME280;64090;49.770;18.760;2022-10-14T01:49:39;97854.80;;;9.86;86.37
75513;BME280;64090;49.770;18.760;2022-10-14T01:52:10;97853.87;;;9.91;86.45
75513;BME280;64090;49.770;18.760;2022-10-14T01:54:40;97854.55;;;9.94;86.33
75513;BME280;64090;49.770;18.760;2022-10-14T01:57:12;97853.33;;;9.95;86.16
75513;BME280;64090;49.770;18.760;2022-10-14T01:59:42;97848.09;;;9.94;86.00
75513;BME280;64090;49.770;18.760;2022-10-14T02:02:11;97848.13;;;9.93;85.82
75513;BME280;64090;49.770;18.760;2022-10-14T02:04:38;97845.39;;;9.93;85.60
75513;BME280;64090;49.770;18.760;2022-10-14T02:07:28;97842.95;;;9.96;85.64
75513;BME280;64090;49.770;18.760;2022-10-14T02:10:21;97840.06;;;9.99;85.85
75513;BME280;64090;49.770;18.760;2022-10-14T02:12:55;97837.78;;;10.00;85.81
75513;BME280;64090;49.770;18.760;2022-10-14T02:21:42;97840.98;;;10.02;85.07
75513;BME280;64090;49.770;18.760;2022-10-14T02:26:41;97837.55;;;10.02;85.05
75513;BME280;64090;49.770;18.760;2022-10-14T02:29:08;97836.17;;;10.05;85.27
75513;BME280;64090;49.770;18.760;2022-10-14T02:31:36;97834.63;;;10.07;85.63
75513;BME280;64090;49.770;18.760;2022-10-14T02:34:08;97831.03;;;10.09;85.51
75513;BME280;64090;49.770;18.760;2022-10-14T02:36:37;97834.84;;;10.11;85.29
75513;BME280;64090;49.770;18.760;2022-10-14T02:39:06;97833.62;;;10.12;85.19
75513;BME280;64090;49.770;18.760;2022-10-14T02:41:36;97832.52;;;10.15;85.03
75513;BME280;64090;49.770;18.760;2022-10-14T02:44:07;97833.27;;;10.23;85.28
75513;BME280;64090;49.770;18.760;2022-10-14T02:46:34;97827.75;;;10.30;85.34
75513;BME280;64090;49.770;18.760;2022-10-14T02:49:01;97830.42;;;10.37;85.45
75513;BME280;64090;49.770;18.760;2022-10-14T02:51:27;97829.50;;;10.38;85.20
75513;BME280;64090;49.770;18.760;2022-10-14T02:53:54;97830.80;;;10.40;85.09
75513;BME280;64090;49.770;18.760;2022-10-14T02:56:22;97828.19;;;10.43;84.82
75513;BME280;64090;49.770;18.760;2022-10-14T02:58:49;97828.23;;;10.47;84.69
75513;BME280;64090;49.770;18.760;2022-10-14T03:01:16;97831.20;;;10.52;84.58
75513;BME280;64090;49.770;18.760;2022-10-14T03:03:42;97827.85;;;10.56;84.87
75513;BME280;64090;49.770;18.760;2022-10-14T03:06:09;97823.35;;;10.59;84.98
75513;BME280;64090;49.770;18.760;2022-10-14T03:08:36;97822.73;;;10.62;84.95
75513;BME280;64090;49.770;18.760;2022-10-14T03:11:03;97820.05;;;10.64;84.70
75513;BME280;64090;49.770;18.760;2022-10-14T03:13:29;97818.29;;;10.63;84.32
75513;BME280;64090;49.770;18.760;2022-10-14T03:15:56;97817.45;;;10.58;84.16
75513;BME280;64090;49.770;18.760;2022-10-14T03:18:23;97817.13;;;10.53;84.03
75513;BME280;64090;49.770;18.760;2022-10-14T03:20:50;97815.98;;;10.52;84.18
75513;BME280;64090;49.770;18.760;2022-10-14T03:23:16;97815.86;;;10.53;84.45
75513;BME280;64090;49.770;18.760;2022-10-14T03:25:43;97817.91;;;10.56;84.50
75513;BME280;64090;49.770;18.760;2022-10-14T03:28:11;97815.01;;;10.59;84.67
75513;BME280;64090;49.770;18.760;2022-10-14T03:30:38;97815.38;;;10.59;84.51
75513;BME280;64090;49.770;18.760;2022-10-14T03:33:05;97814.20;;;10.60;84.32
75513;BME280;64090;49.770;18.760;2022-10-14T03:35:32;97812.93;;;10.62;84.17
75513;BME280;64090;49.770;18.760;2022-10-14T03:37:59;97814.23;;;10.68;84.15
75513;BME280;64090;49.770;18.760;2022-10-14T03:40:29;97813.51;;;10.75;84.20
75513;BME280;64090;49.770;18.760;2022-10-14T03:42:59;97813.79;;;10.81;84.34
75513;BME280;64090;49.770;18.760;2022-10-14T03:45:28;97814.00;;;10.87;84.39
75513;BME280;64090;49.770;18.760;2022-10-14T03:47:55;97811.45;;;10.92;84.12
75513;BME280;64090;49.770;18.760;2022-10-14T03:50:22;97811.79;;;10.97;83.79
75513;BME280;64090;49.770;18.760;2022-10-14T03:52:48;97810.27;;;10.99;83.59
75513;BME280;64090;49.770;18.760;2022-10-14T03:55:21;97815.34;;;11.02;83.52
75513;BME280;64090;49.770;18.760;2022-10-14T03:57:48;97807.75;;;11.09;83.53
75513;BME280;64090;49.770;18.760;2022-10-14T04:00:15;97809.88;;;11.15;83.71
75513;BME280;64090;49.770;18.760;2022-10-14T04:02:42;97812.09;;;11.20;83.75
75513;BME280;64090;49.770;18.760;2022-10-14T04:05:09;97810.56;;;11.22;83.44
75513;BME280;64090;49.770;18.760;2022-10-14T04:07:35;97809.09;;;11.22;83.16
75513;BME280;64090;49.770;18.760;2022-10-14T04:10:02;97808.19;;;11.22;83.08
75513;BME280;64090;49.770;18.760;2022-10-14T04:12:29;97808.69;;;11.24;82.84
75513;BME280;64090;49.770;18.760;2022-10-14T04:14:56;97807.64;;;11.26;83.13
75513;BME280;64090;49.770;18.760;2022-10-14T04:17:23;97807.33;;;11.27;83.34
75513;BME280;64090;49.770;18.760;2022-10-14T04:19:51;97807.23;;;11.30;83.53
75513;BME280;64090;49.770;18.760;2022-10-14T04:22:18;97807.02;;;11.31;83.12
75513;BME280;64090;49.770;18.760;2022-10-14T04:24:45;97806.04;;;11.32;82.98
75513;BME280;64090;49.770;18.760;2022-10-14T04:27:12;97803.02;;;11.31;82.78
75513;BME280;64090;49.770;18.760;2022-10-14T04:29:38;97804.45;;;11.31;82.75
75513;BME280;64090;49.770;18.760;2022-10-14T04:32:05;97799.23;;;11.31;82.58
75513;BME280;64090;49.770;18.760;2022-10-14T04:34:32;97795.97;;;11.34;82.78
75513;BME280;64090;49.770;18.760;2022-10-14T04:36:59;97794.85;;;11.37;83.02
75513;BME280;64090;49.770;18.760;2022-10-14T04:39:25;97792.96;;;11.42;83.09
75513;BME280;64090;49.770;18.760;2022-10-14T04:41:52;97790.52;;;11.48;83.11
75513;BME280;64090;49.770;18.760;2022-10-14T04:44:19;97789.77;;;11.52;82.81
75513;BME280;64090;49.770;18.760;2022-10-14T04:46:45;97790.58;;;11.57;82.50
75513;BME280;64090;49.770;18.760;2022-10-14T04:49:12;97790.86;;;11.60;82.15
75513;BME280;64090;49.770;18.760;2022-10-14T04:51:40;97791.30;;;11.62;81.95
75513;BME280;64090;49.770;18.760;2022-10-14T04:54:06;97790.80;;;11.64;81.82
75513;BME280;64090;49.770;18.760;2022-10-14T04:56:33;97790.02;;;11.67;81.93
75513;BME280;64090;49.770;18.760;2022-10-14T04:59:00;97787.34;;;11.69;82.16
75513;BME280;64090;49.770;18.760;2022-10-14T05:01:27;97786.48;;;11.70;82.15
75513;BME280;64090;49.770;18.760;2022-10-14T05:03:59;97790.69;;;11.73;82.04
75513;BME280;64090;49.770;18.760;2022-10-14T05:06:25;97789.89;;;11.75;81.81
75513;BME280;64090;49.770;18.760;2022-10-14T05:08:52;97793.59;;;11.76;81.56
75513;BME280;64090;49.770;18.760;2022-10-14T05:11:19;97793.41;;;11.78;81.33
75513;BME280;64090;49.770;18.760;2022-10-14T05:13:45;97791.77;;;11.78;81.25
75513;BME280;64090;49.770;18.760;2022-10-14T05:16:12;97788.48;;;11.81;81.25
75513;BME280;64090;49.770;18.760;2022-10-14T05:18:39;97787.05;;;11.87;81.49
75513;BME280;64090;49.770;18.760;2022-10-14T05:21:05;97783.46;;;11.89;81.56
75513;BME280;64090;49.770;18.760;2022-10-14T05:23:32;97785.07;;;11.90;81.27
75513;BME280;64090;49.770;18.760;2022-10-14T05:25:58;97785.89;;;11.91;81.02
75513;BME280;64090;49.770;18.760;2022-10-14T05:28:25;97787.27;;;11.91;80.86
75513;BME280;64090;49.770;18.760;2022-10-14T05:30:52;97787.98;;;11.93;80.55
75513;BME280;64090;49.770;18.760;2022-10-14T05:33:18;97786.45;;;11.95;80.48
75513;BME280;64090;49.770;18.760;2022-10-14T05:35:45;97789.44;;;12.01;80.62
75513;BME280;64090;49.770;18.760;2022-10-14T05:38:24;97789.21;;;12.06;80.76
75513;BME280;64090;49.770;18.760;2022-10-14T05:40:56;97787.84;;;12.10;80.88
75513;BME280;64090;49.770;18.760;2022-10-14T05:43:23;97787.19;;;12.15;80.72
75513;BME280;64090;49.770;18.760;2022-10-14T05:45:57;97787.70;;;12.22;80.30
75513;BME280;64090;49.770;18.760;2022-10-14T05:48:24;97790.95;;;12.29;79.88
75513;BME280;64090;49.770;18.760;2022-10-14T05:50:51;97785.77;;;12.31;79.73
75513;BME280;64090;49.770;18.760;2022-10-14T05:53:18;97783.95;;;12.34;79.51
75513;BME280;64090;49.770;18.760;2022-10-14T05:55:44;97779.79;;;12.38;79.39
75513;BME280;64090;49.770;18.760;2022-10-14T05:58:11;97778.24;;;12.43;79.50
75513;BME280;64090;49.770;18.760;2022-10-14T06:00:38;97779.85;;;12.47;79.72
75513;BME280;64090;49.770;18.760;2022-10-14T06:03:04;97778.52;;;12.50;79.73
75513;BME280;64090;49.770;18.760;2022-10-14T06:05:34;97778.54;;;12.54;79.55
75513;BME280;64090;49.770;18.760;2022-10-14T06:08:02;97781.63;;;12.56;79.32
75513;BME280;64090;49.770;18.760;2022-10-14T06:10:28;97778.87;;;12.58;78.99
75513;BME280;64090;49.770;18.760;2022-10-14T06:12:55;97775.95;;;12.58;78.70
75513;BME280;64090;49.770;18.760;2022-10-14T06:15:22;97774.89;;;12.58;78.48
75513;BME280;64090;49.770;18.760;2022-10-14T06:17:48;97777.81;;;12.62;78.25
75513;BME280;64090;49.770;18.760;2022-10-14T06:20:15;97773.35;;;12.65;78.49
75513;BME280;64090;49.770;18.760;2022-10-14T06:22:42;97777.95;;;12.71;78.66
75513;BME280;64090;49.770;18.760;2022-10-14T06:25:09;97778.40;;;12.75;78.67
75513;BME280;64090;49.770;18.760;2022-10-14T06:27:35;97784.31;;;12.80;78.35
75513;BME280;64090;49.770;18.760;2022-10-14T06:30:03;97782.90;;;12.86;78.00
75513;BME280;64090;49.770;18.760;2022-10-14T06:32:29;97788.80;;;12.92;77.92
75513;BME280;64090;49.770;18.760;2022-10-14T06:34:56;97794.09;;;12.98;77.60
75513;BME280;64090;49.770;18.760;2022-10-14T06:37:23;97795.80;;;13.04;77.51
75513;BME280;64090;49.770;18.760;2022-10-14T06:39:50;97799.47;;;13.08;77.13
75513;BME280;64090;49.770;18.760;2022-10-14T06:42:16;97796.63;;;13.13;77.29
75513;BME280;64090;49.770;18.760;2022-10-14T06:44:43;97794.67;;;13.19;77.00
75513;BME280;64090;49.770;18.760;2022-10-14T06:47:10;97793.79;;;13.26;76.62
75513;BME280;64090;49.770;18.760;2022-10-14T06:49:37;97798.08;;;13.32;76.23
75513;BME280;64090;49.770;18.760;2022-10-14T06:52:03;97799.08;;;13.35;76.07
75513;BME280;64090;49.770;18.760;2022-10-14T06:54:30;97798.55;;;13.38;76.02
75513;BME280;64090;49.770;18.760;2022-10-14T06:57:03;97799.20;;;13.42;75.99
75513;BME280;64090;49.770;18.760;2022-10-14T06:59:30;97802.02;;;13.42;75.59
75513;BME280;64090;49.770;18.760;2022-10-14T07:01:56;97803.04;;;13.44;75.70
75513;BME280;64090;49.770;18.760;2022-10-14T07:04:23;97804.75;;;13.50;75.65
75513;BME280;64090;49.770;18.760;2022-10-14T07:06:50;97806.25;;;13.52;74.91
75513;BME280;64090;49.770;18.760;2022-10-14T07:09:17;97806.73;;;13.56;74.98
75513;BME280;64090;49.770;18.760;2022-10-14T07:11:44;97804.65;;;13.59;75.21
75513;BME280;64090;49.770;18.760;2022-10-14T07:14:10;97806.19;;;13.60;75.62
75513;BME280;64090;49.770;18.760;2022-10-14T07:16:37;97802.90;;;13.60;75.35
75513;BME280;64090;49.770;18.760;2022-10-14T07:19:04;97803.98;;;13.59;75.13
75513;BME280;64090;49.770;18.760;2022-10-14T07:21:31;97804.21;;;13.61;74.71
75513;BME280;64090;49.770;18.760;2022-10-14T07:23:57;97804.02;;;13.63;74.41
75513;BME280;64090;49.770;18.760;2022-10-14T07:26:24;97804.50;;;13.71;74.68
75513;BME280;64090;49.770;18.760;2022-10-14T07:28:51;97807.41;;;13.83;74.88
75513;BME280;64090;49.770;18.760;2022-10-14T07:31:17;97807.23;;;13.94;74.46
75513;BME280;64090;49.770;18.760;2022-10-14T07:33:44;97801.89;;;14.04;73.61
75513;BME280;64090;49.770;18.760;2022-10-14T07:36:13;97804.48;;;14.13;73.84
75513;BME280;64090;49.770;18.760;2022-10-14T07:38:46;97807.94;;;14.14;73.36
75513;BME280;64090;49.770;18.760;2022-10-14T07:41:16;97807.28;;;14.16;73.22
75513;BME280;64090;49.770;18.760;2022-10-14T07:43:48;97810.70;;;14.25;73.31
75513;BME280;64090;49.770;18.760;2022-10-14T07:46:16;97804.17;;;14.33;73.52
75513;BME280;64090;49.770;18.760;2022-10-14T07:48:59;97804.46;;;14.36;72.39
75513;BME280;64090;49.770;18.760;2022-10-14T07:51:26;97807.85;;;14.37;72.27
75513;BME280;64090;49.770;18.760;2022-10-14T07:53:55;97809.48;;;14.38;72.27
75513;BME280;64090;49.770;18.760;2022-10-14T07:56:22;97806.64;;;14.47;72.24
75513;BME280;64090;49.770;18.760;2022-10-14T07:58:49;97804.56;;;14.58;71.96
75513;BME280;64090;49.770;18.760;2022-10-14T08:01:17;97801.87;;;14.85;72.18
75513;BME280;64090;49.770;18.760;2022-10-14T08:03:46;97800.83;;;15.26;71.61
75513;BME280;64090;49.770;18.760;2022-10-14T08:06:13;97795.28;;;15.47;70.51
75513;BME280;64090;49.770;18.760;2022-10-14T08:08:40;97798.15;;;15.65;70.29
75513;BME280;64090;49.770;18.760;2022-10-14T08:11:19;97800.96;;;15.89;69.86
75513;BME280;64090;49.770;18.760;2022-10-14T08:13:47;97799.98;;;16.02;68.17
75513;BME280;64090;49.770;18.760;2022-10-14T08:16:22;97799.29;;;16.05;67.82
75513;BME280;64090;49.770;18.760;2022-10-14T08:18:50;97800.81;;;16.23;68.28
75513;BME280;64090;49.770;18.760;2022-10-14T08:21:19;97802.52;;;16.44;67.95
75513;BME280;64090;49.770;18.760;2022-10-14T08:23:46;97799.45;;;16.61;66.95
75513;BME280;64090;49.770;18.760;2022-10-14T08:26:22;97799.17;;;16.91;66.00
75513;BME280;64090;49.770;18.760;2022-10-14T08:28:49;97799.38;;;17.26;65.12
75513;BME280;64090;49.770;18.760;2022-10-14T08:31:19;97802.15;;;17.45;64.79
75513;BME280;64090;49.770;18.760;2022-10-14T08:33:46;97802.59;;;17.68;64.70
75513;BME280;64090;49.770;18.760;2022-10-14T08:36:14;97799.21;;;17.89;64.64
75513;BME280;64090;49.770;18.760;2022-10-14T08:38:40;97802.67;;;17.96;63.21
75513;BME280;64090;49.770;18.760;2022-10-14T08:43:47;97805.20;;;17.91;63.03
75513;BME280;64090;49.770;18.760;2022-10-14T08:46:29;97804.05;;;17.88;63.00
75513;BME280;64090;49.770;18.760;2022-10-14T08:49:11;97809.47;;;17.83;63.45
75513;BME280;64090;49.770;18.760;2022-10-14T08:51:42;97809.27;;;17.85;62.57
75513;BME280;64090;49.770;18.760;2022-10-14T08:54:11;97809.69;;;17.83;62.63
75513;BME280;64090;49.770;18.760;2022-10-14T08:56:41;97805.77;;;17.89;62.21
75513;BME280;64090;49.770;18.760;2022-10-14T08:59:16;97808.52;;;17.94;61.42
75513;BME280;64090;49.770;18.760;2022-10-14T09:01:52;97811.74;;;17.90;60.92
75513;BME280;64090;49.770;18.760;2022-10-14T09:04:20;97813.44;;;17.86;61.78
75513;BME280;64090;49.770;18.760;2022-10-14T09:06:49;97815.00;;;18.01;62.05
75513;BME280;64090;49.770;18.760;2022-10-14T09:09:29;97814.39;;;18.04;61.11
75513;BME280;64090;49.770;18.760;2022-10-14T09:12:02;97818.54;;;17.95;61.50
75513;BME280;64090;49.770;18.760;2022-10-14T09:14:33;97816.69;;;17.85;61.15
75513;BME280;64090;49.770;18.760;2022-10-14T09:17:23;97819.45;;;17.71;61.24
75513;BME280;64090;49.770;18.760;2022-10-14T09:19:56;97821.45;;;17.68;62.20
75513;BME280;64090;49.770;18.760;2022-10-14T09:22:28;97821.58;;;17.76;62.69
75513;BME280;64090;49.770;18.760;2022-10-14T09:24:56;97824.33;;;17.69;60.52
75513;BME280;64090;49.770;18.760;2022-10-14T09:27:24;97821.72;;;17.71;61.52
75513;BME280;64090;49.770;18.760;2022-10-14T09:30:16;97824.36;;;17.79;61.68
75513;BME280;64090;49.770;18.760;2022-10-14T09:32:51;97823.34;;;17.95;62.42
75513;BME280;64090;49.770;18.760;2022-10-14T09:35:32;97824.20;;;18.00;61.45
75513;BME280;64090;49.770;18.760;2022-10-14T09:38:00;97824.82;;;17.93;61.69
75513;BME280;64090;49.770;18.760;2022-10-14T09:40:34;97823.15;;;18.03;61.13
75513;BME280;64090;49.770;18.760;2022-10-14T09:48:38;97826.04;;;18.24;60.38
75513;BME280;64090;49.770;18.760;2022-10-14T09:51:29;97822.47;;;18.08;60.94
75513;BME280;64090;49.770;18.760;2022-10-14T09:53:58;97823.68;;;17.98;62.18
75513;BME280;64090;49.770;18.760;2022-10-14T09:56:32;97825.23;;;17.97;61.60
75513;BME280;64090;49.770;18.760;2022-10-14T09:59:20;97823.19;;;18.11;61.30
75513;BME280;64090;49.770;18.760;2022-10-14T10:01:52;97825.40;;;18.30;61.16
75513;BME280;64090;49.770;18.760;2022-10-14T10:06:56;97824.59;;;18.35;59.65
75513;BME280;64090;49.770;18.760;2022-10-14T10:09:25;97822.38;;;18.00;59.76
75513;BME280;64090;49.770;18.760;2022-10-14T10:11:52;97824.03;;;17.64;61.21
75513;BME280;64090;49.770;18.760;2022-10-14T10:14:31;97823.09;;;17.41;62.06
75513;BME280;64090;49.770;18.760;2022-10-14T10:19:40;97822.17;;;17.20;62.87
75513;BME280;64090;49.770;18.760;2022-10-14T10:24:50;97821.66;;;17.36;62.60
75513;BME280;64090;49.770;18.760;2022-10-14T10:27:30;97828.20;;;17.50;62.05
75513;BME280;64090;49.770;18.760;2022-10-14T10:30:20;97831.27;;;17.55;62.89
75513;BME280;64090;49.770;18.760;2022-10-14T10:33:04;97824.15;;;17.60;62.91
75513;BME280;64090;49.770;18.760;2022-10-14T10:38:21;97826.13;;;17.76;62.97
75513;BME280;64090;49.770;18.760;2022-10-14T10:52:35;97814.85;;;17.93;62.65
75513;BME280;64090;49.770;18.760;2022-10-14T10:55:12;97807.13;;;17.99;61.91
75513;BME280;64090;49.770;18.760;2022-10-14T11:00:50;97814.33;;;18.21;61.98
75513;BME280;64090;49.770;18.760;2022-10-14T11:03:53;97805.23;;;18.33;61.60
75513;BME280;64090;49.770;18.760;2022-10-14T11:06:52;97807.36;;;18.24;61.41
75513;BME280;64090;49.770;18.760;2022-10-14T11:10:02;97803.02;;;18.02;62.36
75513;BME280;64090;49.770;18.760;2022-10-14T11:12:59;97800.31;;;17.67;62.44
75513;BME280;64090;49.770;18.760;2022-10-14T11:15:57;97800.20;;;17.39;62.92
75513;BME280;64090;49.770;18.760;2022-10-14T11:18:46;97796.73;;;17.00;63.21
75513;BME280;64090;49.770;18.760;2022-10-14T11:22:15;97791.31;;;16.80;63.63
75513;BME280;64090;49.770;18.760;2022-10-14T11:27:18;97789.46;;;16.61;64.26
75513;BME280;64090;49.770;18.760;2022-10-14T11:30:14;97787.77;;;16.57;64.17
75513;BME280;64090;49.770;18.760;2022-10-14T11:33:05;97789.80;;;16.49;64.33
75513;BME280;64090;49.770;18.760;2022-10-14T11:44:30;97780.47;;;16.43;64.49
75513;BME280;64090;49.770;18.760;2022-10-14T11:47:02;97779.82;;;16.34;64.39
75513;BME280;64090;49.770;18.760;2022-10-14T11:49:42;97778.81;;;16.32;64.46
75513;BME280;64090;49.770;18.760;2022-10-14T11:52:20;97779.56;;;16.38;64.60
75513;BME280;64090;49.770;18.760;2022-10-14T11:54:54;97777.25;;;16.46;65.09
75513;BME280;64090;49.770;18.760;2022-10-14T11:57:34;97779.12;;;16.50;65.11
75513;BME280;64090;49.770;18.760;2022-10-14T12:00:22;97779.94;;;16.51;65.11
75513;BME280;64090;49.770;18.760;2022-10-14T12:03:19;97776.55;;;16.62;64.77
75513;BME280;64090;49.770;18.760;2022-10-14T12:06:27;97772.29;;;16.90;64.78
75513;BME280;64090;49.770;18.760;2022-10-14T12:09:00;97774.02;;;17.12;64.41
75513;BME280;64090;49.770;18.760;2022-10-14T12:11:48;97769.42;;;17.32;64.17
75513;BME280;64090;49.770;18.760;2022-10-14T12:17:05;97769.85;;;17.75;62.57
75513;BME280;64090;49.770;18.760;2022-10-14T12:19:41;97768.01;;;17.88;62.52
75513;BME280;64090;49.770;18.760;2022-10-14T12:24:46;97763.17;;;18.13;61.72
75513;BME280;64090;49.770;18.760;2022-10-14T12:27:14;97764.39;;;18.17;61.21
75513;BME280;64090;49.770;18.760;2022-10-14T12:29:46;97762.96;;;18.19;61.48
75513;BME280;64090;49.770;18.760;2022-10-14T12:34:51;97764.36;;;18.20;61.65
75513;BME280;64090;49.770;18.760;2022-10-14T12:45:31;97759.35;;;18.04;61.55
75513;BME280;64090;49.770;18.760;2022-10-14T12:48:27;97759.48;;;18.08;61.55
75513;BME280;64090;49.770;18.760;2022-10-14T12:51:06;97757.48;;;18.10;61.88
75513;BME280;64090;49.770;18.760;2022-10-14T12:53:33;97756.55;;;18.03;61.94
75513;BME280;64090;49.770;18.760;2022-10-14T12:56:02;97753.88;;;17.81;62.38
75513;BME280;64090;49.770;18.760;2022-10-14T12:58:56;97752.61;;;17.46;62.62
75513;BME280;64090;49.770;18.760;2022-10-14T13:01:27;97753.39;;;17.01;63.19
75513;BME280;64090;49.770;18.760;2022-10-14T13:04:05;97748.14;;;16.66;63.60
75513;BME280;64090;49.770;18.760;2022-10-14T13:06:40;97745.23;;;16.39;64.28
75513;BME280;64090;49.770;18.760;2022-10-14T13:14:26;97744.86;;;16.00;65.56
75513;BME280;64090;49.770;18.760;2022-10-14T13:16:56;97744.83;;;15.92;66.06
75513;BME280;64090;49.770;18.760;2022-10-14T13:22:01;97744.40;;;15.87;66.56
75513;BME280;64090;49.770;18.760;2022-10-14T13:24:30;97746.00;;;15.80;66.26
75513;BME280;64090;49.770;18.760;2022-10-14T13:27:17;97746.96;;;15.75;66.25
75513;BME280;64090;49.770;18.760;2022-10-14T13:33:06;97749.50;;;15.64;66.53
75513;BME280;64090;49.770;18.760;2022-10-14T13:35:58;97750.04;;;15.69;66.59
75513;BME280;64090;49.770;18.760;2022-10-14T13:38:29;97740.62;;;15.73;66.37
75513;BME280;64090;49.770;18.760;2022-10-14T13:40:58;97737.66;;;15.74;66.35
75513;BME280;64090;49.770;18.760;2022-10-14T13:43:39;97735.31;;;15.74;66.37
75513;BME280;64090;49.770;18.760;2022-10-14T13:46:16;97729.05;;;15.74;66.37
75513;BME280;64090;49.770;18.760;2022-10-14T13:48:53;97726.69;;;15.75;66.31
75513;BME280;64090;49.770;18.760;2022-10-14T13:51:28;97721.69;;;15.79;66.61
75513;BME280;64090;49.770;18.760;2022-10-14T13:54:19;97724.45;;;15.78;66.83
75513;BME280;64090;49.770;18.760;2022-10-14T13:57:00;97724.43;;;15.74;66.78
75513;BME280;64090;49.770;18.760;2022-10-14T13:59:48;97720.41;;;15.68;67.01
75513;BME280;64090;49.770;18.760;2022-10-14T14:02:34;97724.55;;;15.65;66.74
75513;BME280;64090;49.770;18.760;2022-10-14T14:05:01;97725.05;;;15.61;66.79
75513;BME280;64090;49.770;18.760;2022-10-14T14:07:32;97724.11;;;15.52;66.94
75513;BME280;64090;49.770;18.760;2022-10-14T14:10:22;97719.49;;;15.38;67.46
75513;BME280;64090;49.770;18.760;2022-10-14T14:12:50;97720.21;;;15.29;67.50
75513;BME280;64090;49.770;18.760;2022-10-14T14:15:23;97718.38;;;15.20;67.75
75513;BME280;64090;49.770;18.760;2022-10-14T14:17:50;97719.64;;;15.14;67.81
75513;BME280;64090;49.770;18.760;2022-10-14T14:20:22;97719.31;;;15.12;68.35
75513;BME280;64090;49.770;18.760;2022-10-14T14:22:49;97720.66;;;15.07;68.64
75513;BME280;64090;49.770;18.760;2022-10-14T14:25:26;97719.25;;;15.01;69.39
75513;BME280;64090;49.770;18.760;2022-10-14T14:28:12;97722.44;;;14.90;69.23
75513;BME280;64090;49.770;18.760;2022-10-14T14:30:40;97717.92;;;14.83;69.53
75513;BME280;64090;49.770;18.760;2022-10-14T14:33:27;97713.31;;;14.73;70.07
75513;BME280;64090;49.770;18.760;2022-10-14T14:35:59;97711.84;;;14.63;70.20
75513;BME280;64090;49.770;18.760;2022-10-14T14:38:33;97713.77;;;14.58;70.26
75513;BME280;64090;49.770;18.760;2022-10-14T14:43:28;97712.73;;;14.57;71.00
75513;BME280;64090;49.770;18.760;2022-10-14T14:46:01;97714.86;;;14.57;70.85
75513;BME280;64090;49.770;18.760;2022-10-14T14:48:29;97711.48;;;14.61;70.71
75513;BME280;64090;49.770;18.760;2022-10-14T14:50:57;97713.02;;;14.63;70.82
75513;BME280;64090;49.770;18.760;2022-10-14T14:53:24;97711.61;;;14.64;70.70
75513;BME280;64090;49.770;18.760;2022-10-14T14:56:01;97710.58;;;14.66;70.55
75513;BME280;64090;49.770;18.760;2022-10-14T14:58:46;97712.21;;;14.67;70.73
75513;BME280;64090;49.770;18.760;2022-10-14T15:01:21;97709.30;;;14.73;70.77
75513;BME280;64090;49.770;18.760;2022-10-14T15:04:01;97708.54;;;14.75;70.62